Time;durP1;ratioP1;P1;durP2;ratioP2;P2;SDS_P1;SDS_P2;PMS_P1;PMS_P2;Temp;Humidity;BMP_temperature;BMP_pressure;BME280_temperature;BME280_humidity;BME280_pressure;Samples;Min_cycle;Max_cycle;Signal;HPM_P1;HPM_P2
2024/01/30 00:00:10;;;;;;;9.52;5.20;;;;;;;2.11;91.85;100841.47;333583;28;17713;-76
2024/01/30 00:00:22;;;;;;;8.13;5.00;;;;;;;2.06;92.24;100838.81;335659;29;4568;-76
2024/01/30 00:00:34;;;;;;;9.93;5.28;;;;;;;2.02;91.97;100837.00;334646;28;17992;-76
2024/01/30 00:00:46;;;;;;;10.13;5.43;;;;;;;1.96;92.32;100837.75;337952;28;4664;-76
2024/01/30 00:00:58;;;;;;;9.73;5.25;;;;;;;1.98;92.68;100845.47;335634;28;12150;-76
2024/01/30 00:01:11;;;;;;;8.88;5.15;;;;;;;1.98;92.90;100841.22;337960;28;15575;-76
2024/01/30 00:01:23;;;;;;;10.73;5.57;;;;;;;1.98;92.70;100841.22;334195;28;5993;-76
2024/01/30 00:01:35;;;;;;;10.85;5.72;;;;;;;1.98;92.77;100846.34;335668;28;17941;-76
2024/01/30 00:01:47;;;;;;;9.45;5.15;;;;;;;1.99;92.59;100842.94;337779;28;5686;-76
2024/01/30 00:01:59;;;;;;;9.40;5.38;;;;;;;1.97;92.65;100839.50;335959;28;19140;-76
2024/01/30 00:02:11;;;;;;;10.07;5.47;;;;;;;2.00;92.46;100838.69;338656;28;4554;-76
2024/01/30 00:02:23;;;;;;;9.65;5.13;;;;;;;2.06;92.38;100837.94;336282;28;5081;-76
2024/01/30 00:02:36;;;;;;;9.25;4.90;;;;;;;2.09;92.33;100840.56;336808;28;4557;-76
2024/01/30 00:02:48;;;;;;;9.77;5.20;;;;;;;2.05;91.73;100841.34;337634;28;4552;-76
2024/01/30 00:03:00;;;;;;;11.55;5.50;;;;;;;2.00;90.96;100839.53;331719;28;4886;-76
2024/01/30 00:03:12;;;;;;;11.55;5.30;;;;;;;1.91;90.30;100839.38;336952;28;4589;-76
2024/01/30 00:03:23;;;;;;;10.98;5.20;;;;;;;1.81;89.90;100837.41;335222;28;13086;-76
2024/01/30 00:03:35;;;;;;;11.63;5.43;;;;;;;1.76;89.84;100839.00;336807;28;4525;-76
2024/01/30 00:03:47;;;;;;;11.60;5.38;;;;;;;1.66;89.48;100837.94;336715;28;4689;-76
2024/01/30 00:03:59;;;;;;;8.60;5.07;;;;;;;1.64;89.45;100843.88;334102;28;5800;-76
2024/01/30 00:04:12;;;;;;;9.00;5.03;;;;;;;1.58;89.40;100844.59;331186;28;4571;-76
2024/01/30 00:04:24;;;;;;;10.88;5.45;;;;;;;1.54;89.23;100837.66;336641;28;5769;-76
2024/01/30 00:04:36;;;;;;;10.05;5.28;;;;;;;1.52;89.56;100840.19;330416;28;18587;-76
2024/01/30 00:04:48;;;;;;;9.02;4.90;;;;;;;1.53;89.29;100847.06;336179;28;6211;-76
2024/01/30 00:05:00;;;;;;;10.30;5.30;;;;;;;1.50;89.52;100839.28;334962;28;7661;-76
2024/01/30 00:05:12;;;;;;;11.15;5.40;;;;;;;1.53;90.05;100841.94;337443;28;4508;-76
2024/01/30 00:05:24;;;;;;;9.70;5.05;;;;;;;1.55;90.33;100840.25;337522;28;4705;-76
2024/01/30 00:05:36;;;;;;;8.85;4.80;;;;;;;1.59;91.39;100847.19;335962;28;12720;-76
2024/01/30 00:05:48;;;;;;;8.20;4.53;;;;;;;1.60;91.37;100837.78;334166;28;17077;-76
2024/01/30 00:06:00;;;;;;;8.82;4.53;;;;;;;1.66;91.59;100839.63;337660;28;4606;-76
2024/01/30 00:06:12;;;;;;;8.50;4.80;;;;;;;1.71;91.53;100840.59;334045;28;18223;-76
2024/01/30 00:06:24;;;;;;;8.65;5.55;;;;;;;1.76;91.44;100841.56;336235;28;4539;-76
2024/01/30 00:06:36;;;;;;;8.13;5.63;;;;;;;1.81;91.37;100842.53;336451;28;4665;-76
2024/01/30 00:06:48;;;;;;;8.40;5.30;;;;;;;1.86;91.45;100842.66;334891;28;18321;-76
2024/01/30 00:07:00;;;;;;;7.57;4.85;;;;;;;1.89;91.25;100845.25;337263;28;4694;-76
2024/01/30 00:07:12;;;;;;;7.72;4.78;;;;;;;1.89;91.32;100841.03;334416;28;17974;-76
2024/01/30 00:07:24;;;;;;;8.88;5.28;;;;;;;1.91;91.44;100839.38;337485;28;4767;-76
2024/01/30 00:07:37;;;;;;;9.75;5.35;;;;;;;1.94;91.71;100836.00;334089;28;5275;-76
2024/01/30 00:07:50;;;;;;;10.63;5.30;;;;;;;1.95;91.80;100841.16;337235;28;5595;-76
2024/01/30 00:08:03;;;;;;;10.40;5.13;;;;;;;1.97;91.62;100839.50;334779;28;12855;-76
2024/01/30 00:08:15;;;;;;;10.07;5.00;;;;;;;1.99;91.81;100842.94;337333;28;5830;-76
2024/01/30 00:08:27;;;;;;;11.48;5.15;;;;;;;2.03;91.65;100843.00;337179;28;4697;-77
2024/01/30 00:08:39;;;;;;;10.13;4.80;;;;;;;2.04;92.23;100840.47;334152;28;18154;-76
2024/01/30 00:08:51;;;;;;;9.45;4.70;;;;;;;2.06;91.67;100843.09;332669;28;5433;-76
2024/01/30 00:09:03;;;;;;;9.55;4.70;;;;;;;2.07;92.26;100842.22;334736;28;5617;-76
2024/01/30 00:09:15;;;;;;;10.05;5.00;;;;;;;2.11;92.03;100846.59;338131;28;5166;-76
2024/01/30 00:09:27;;;;;;;8.57;4.88;;;;;;;2.13;91.72;100842.38;337406;28;5089;-76
2024/01/30 00:09:39;;;;;;;7.25;4.60;;;;;;;2.16;91.90;100842.44;333696;28;18323;-76
2024/01/30 00:09:51;;;;;;;7.93;4.57;;;;;;;2.17;91.77;100846.72;336951;28;5472;-76
2024/01/30 00:10:05;;;;;;;8.27;4.75;;;;;;;2.21;91.48;100843.38;330200;28;18486;-76
2024/01/30 00:10:18;;;;;;;7.97;4.90;;;;;;;2.23;91.78;100846.84;334895;28;13546;-75
2024/01/30 00:10:30;;;;;;;7.97;4.85;;;;;;;2.22;91.32;100845.13;337741;28;4662;-75
2024/01/30 00:10:42;;;;;;;8.00;4.65;;;;;;;2.23;91.83;100848.56;334745;28;4552;-76
2024/01/30 00:10:55;;;;;;;7.93;4.85;;;;;;;2.24;91.47;100848.59;332979;28;18571;-76
2024/01/30 00:11:07;;;;;;;8.70;4.93;;;;;;;2.25;91.40;100847.75;336455;28;4710;-76
2024/01/30 00:11:19;;;;;;;9.15;4.90;;;;;;;2.28;91.54;100858.09;333778;28;17909;-76
2024/01/30 00:11:32;;;;;;;7.97;4.40;;;;;;;2.29;91.53;100852.09;336483;28;4703;-76
2024/01/30 00:11:44;;;;;;;7.55;4.60;;;;;;;2.30;91.09;100848.72;333973;28;18232;-76
2024/01/30 00:11:56;;;;;;;7.85;4.75;;;;;;;2.30;91.46;100858.13;338019;28;4787;-76
2024/01/30 00:12:08;;;;;;;9.50;4.78;;;;;;;2.32;91.44;100847.03;335560;28;12745;-76
2024/01/30 00:12:20;;;;;;;10.07;4.75;;;;;;;2.33;91.09;100851.31;337829;28;4830;-76
2024/01/30 00:12:32;;;;;;;8.93;4.53;;;;;;;2.34;91.25;100845.38;336976;28;4563;-76
2024/01/30 00:12:44;;;;;;;8.45;4.50;;;;;;;2.34;91.35;100845.38;334141;28;16151;-76
2024/01/30 00:12:56;;;;;;;7.72;4.55;;;;;;;2.33;91.27;100853.88;336575;28;4704;-76
2024/01/30 00:13:08;;;;;;;7.65;4.50;;;;;;;2.32;91.22;100852.19;331676;28;4655;-76
2024/01/30 00:13:20;;;;;;;7.93;4.50;;;;;;;2.32;91.25;100852.19;334064;28;17939;-76
2024/01/30 00:13:32;;;;;;;9.05;4.70;;;;;;;2.32;91.34;100847.03;336225;28;5537;-76
2024/01/30 00:13:44;;;;;;;9.73;4.88;;;;;;;2.31;91.29;100850.44;334776;28;16467;-76
2024/01/30 00:13:56;;;;;;;9.45;4.95;;;;;;;2.32;90.95;100854.75;337463;28;4672;-76
2024/01/30 00:14:08;;;;;;;10.25;5.15;;;;;;;2.32;91.40;100849.59;337112;28;12852;-76
2024/01/30 00:14:20;;;;;;;9.27;5.00;;;;;;;2.33;91.17;100853.03;330145;28;18251;-76
2024/01/30 00:14:32;;;;;;;8.38;4.72;;;;;;;2.34;91.35;100844.53;337502;28;4736;-76
2024/01/30 00:14:45;;;;;;;6.95;4.38;;;;;;;2.37;91.38;100850.59;330912;28;16780;-76
2024/01/30 00:14:58;;;;;;;6.07;3.92;;;;;;;2.38;91.14;100852.31;337813;28;5121;-76
2024/01/30 00:15:10;;;;;;;7.47;4.22;;;;;;;2.39;91.04;100848.91;334629;28;11433;-76
2024/01/30 00:15:22;;;;;;;9.32;4.85;;;;;;;2.40;90.88;100850.63;337411;28;4578;-76
2024/01/30 00:15:34;;;;;;;8.93;4.45;;;;;;;2.42;90.42;100847.25;334052;28;18058;-76
2024/01/30 00:15:47;;;;;;;9.05;4.70;;;;;;;2.43;90.99;100854.09;335976;28;4567;-76
2024/01/30 00:15:59;;;;;;;9.40;4.97;;;;;;;2.41;90.67;100851.47;332367;29;13239;-76
2024/01/30 00:16:24;;;;;;;9.80;4.93;;;;;;;2.39;90.65;100853.16;333239;29;4535;-76
2024/01/30 00:16:36;;;;;;;9.63;4.28;;;;;;;2.38;90.31;100852.31;330487;29;17198;-76
2024/01/30 00:16:49;;;;;;;8.00;4.28;;;;;;;2.35;90.50;100854.78;334646;29;4593;-76
2024/01/30 00:17:00;;;;;;;7.53;4.35;;;;;;;2.36;90.91;100853.09;333870;29;18026;-76
2024/01/30 00:17:12;;;;;;;8.57;4.32;;;;;;;2.36;90.97;100848.84;337340;28;4556;-76
2024/01/30 00:17:26;;;;;;;9.25;4.40;;;;;;;2.37;90.93;100852.25;332525;28;4842;-76
2024/01/30 00:17:38;;;;;;;9.30;4.45;;;;;;;2.35;90.85;100854.78;334655;28;15558;-76
2024/01/30 00:17:52;;;;;;;9.52;4.60;;;;;;;2.33;90.82;100860.72;333930;28;10644;-76
2024/01/30 00:18:04;;;;;;;9.82;4.93;;;;;;;2.33;91.24;100848.75;336928;28;4565;-76
2024/01/30 00:18:16;;;;;;;8.88;4.63;;;;;;;2.33;91.00;100848.75;335025;28;18132;-76
2024/01/30 00:18:28;;;;;;;9.85;4.53;;;;;;;2.35;90.89;100852.22;338588;28;4841;-76
2024/01/30 00:18:40;;;;;;;9.60;4.35;;;;;;;2.35;90.72;100849.66;332063;28;18328;-76
2024/01/30 00:18:53;;;;;;;8.85;4.40;;;;;;;2.32;91.02;100852.19;339323;28;4550;-76
2024/01/30 00:19:05;;;;;;;8.02;4.38;;;;;;;2.30;91.04;100850.44;335770;28;16683;-76
2024/01/30 00:19:17;;;;;;;7.47;4.45;;;;;;;2.23;90.70;100851.97;338080;28;4532;-75
2024/01/30 00:19:30;;;;;;;8.70;5.05;;;;;;;2.27;91.11;100852.91;335256;28;10464;-75
2024/01/30 00:19:42;;;;;;;7.90;4.60;;;;;;;2.28;90.94;100850.38;338983;28;4528;-75
2024/01/30 00:19:54;;;;;;;8.00;4.20;;;;;;;2.29;91.00;100852.09;338919;28;4593;-75
2024/01/30 00:20:08;;;;;;;8.55;4.18;;;;;;;2.29;90.82;100857.22;336380;28;15940;-76
2024/01/30 00:20:21;;;;;;;7.57;4.45;;;;;;;2.30;90.91;100847.84;332429;28;5218;-76
2024/01/30 00:20:33;;;;;;;8.52;4.70;;;;;;;2.29;90.91;100852.09;337593;28;5277;-76
2024/01/30 00:20:45;;;;;;;9.35;4.78;;;;;;;2.29;91.12;100852.09;334308;28;5502;-76
2024/01/30 00:20:57;;;;;;;9.90;4.35;;;;;;;2.30;90.78;100853.00;333407;28;17131;-76
2024/01/30 00:21:09;;;;;;;8.23;3.90;;;;;;;2.31;90.83;100850.44;336579;28;4538;-76
2024/01/30 00:21:21;;;;;;;8.38;4.43;;;;;;;2.28;90.95;100849.53;333029;28;13792;-76
2024/01/30 00:21:34;;;;;;;8.32;4.88;;;;;;;2.26;91.07;100852.06;331337;28;4658;-76
2024/01/30 00:21:46;;;;;;;7.82;4.53;;;;;;;2.25;91.10;100850.31;332965;28;13280;-76
2024/01/30 00:21:58;;;;;;;7.78;4.38;;;;;;;2.24;91.14;100858.84;335940;28;4599;-76
2024/01/30 00:22:10;;;;;;;8.38;4.78;;;;;;;2.23;91.34;100851.97;335755;28;12893;-76
2024/01/30 00:22:22;;;;;;;8.35;4.88;;;;;;;2.25;91.52;100849.44;334945;28;17200;-76
2024/01/30 00:22:34;;;;;;;7.15;4.50;;;;;;;2.25;91.54;100849.44;338490;28;4678;-76
2024/01/30 00:22:47;;;;;;;8.13;4.65;;;;;;;2.23;91.51;100851.97;334167;28;18174;-76
2024/01/30 00:22:59;;;;;;;8.55;4.57;;;;;;;2.25;91.44;100850.31;336037;28;5543;-76
2024/01/30 00:23:11;;;;;;;9.65;4.65;;;;;;;2.27;91.43;100852.91;333252;28;5303;-76
2024/01/30 00:23:23;;;;;;;8.55;4.43;;;;;;;2.27;91.69;100856.34;334104;28;19391;-76
2024/01/30 00:23:35;;;;;;;8.27;4.50;;;;;;;2.28;91.59;100854.66;337227;28;5420;-76
2024/01/30 00:23:47;;;;;;;9.50;4.78;;;;;;;2.26;91.38;100857.19;334453;28;14326;-76
2024/01/30 00:23:59;;;;;;;10.98;4.93;;;;;;;2.28;91.43;100850.38;337383;28;5331;-76
2024/01/30 00:24:11;;;;;;;10.27;5.07;;;;;;;2.30;91.13;100853.84;337756;28;4579;-76
2024/01/30 00:24:23;;;;;;;11.55;5.32;;;;;;;2.30;91.36;100853.84;332891;28;17433;-76
2024/01/30 00:24:35;;;;;;;9.93;5.00;;;;;;;2.30;91.14;100858.97;335112;28;6504;-76
2024/01/30 00:24:47;;;;;;;9.55;4.72;;;;;;;2.32;91.21;100857.31;331370;28;18063;-76
2024/01/30 00:25:00;;;;;;;8.70;4.53;;;;;;;2.36;91.11;100859.09;337143;28;4867;-76
2024/01/30 00:25:12;;;;;;;8.88;4.72;;;;;;;2.39;91.14;100848.03;333719;28;12410;-76
2024/01/30 00:25:24;;;;;;;7.65;4.30;;;;;;;2.40;91.41;100850.63;337016;28;4731;-76
2024/01/30 00:25:36;;;;;;;7.60;4.13;;;;;;;2.43;91.00;100854.94;336750;28;5990;-76
2024/01/30 00:25:48;;;;;;;7.25;4.22;;;;;;;2.44;90.83;100851.56;333506;28;17958;-76
2024/01/30 00:26:00;;;;;;;5.90;3.55;;;;;;;2.48;90.88;100849.94;336296;28;4645;-76
2024/01/30 00:26:14;;;;;;;6.75;3.50;;;;;;;2.49;90.71;100856.78;333470;28;5433;-76
2024/01/30 00:26:26;;;;;;;7.75;4.07;;;;;;;2.52;90.56;100854.28;335500;28;5326;-76
2024/01/30 00:26:38;;;;;;;9.80;4.47;;;;;;;2.52;90.44;100854.28;334044;28;18155;-76
2024/01/30 00:26:51;;;;;;;9.45;4.53;;;;;;;2.52;90.35;100854.28;337371;28;4848;-76
2024/01/30 00:27:03;;;;;;;7.72;4.65;;;;;;;2.52;90.15;100859.41;335693;28;12125;-76
2024/01/30 00:27:16;;;;;;;8.45;4.80;;;;;;;2.54;90.10;100845.78;333747;28;4676;-76
2024/01/30 00:27:28;;;;;;;9.43;4.72;;;;;;;2.55;90.04;100854.31;333974;28;14844;-76
2024/01/30 00:27:40;;;;;;;9.25;4.47;;;;;;;2.54;90.18;100862.88;336714;28;4712;-76
2024/01/30 00:27:52;;;;;;;8.68;4.40;;;;;;;2.47;90.16;100856.75;337212;28;5479;-76
2024/01/30 00:28:04;;;;;;;8.90;4.72;;;;;;;2.47;90.21;100850.75;334541;28;18067;-76
2024/01/30 00:28:16;;;;;;;9.85;5.40;;;;;;;2.45;90.29;100852.41;337531;28;5451;-76
2024/01/30 00:28:28;;;;;;;8.57;5.30;;;;;;;2.44;90.34;100850.69;336359;28;16070;-76
2024/01/30 00:28:43;;;;;;;8.70;5.03;;;;;;;2.46;90.45;100854.16;334779;28;18278;-76
2024/01/30 00:28:55;;;;;;;8.02;5.05;;;;;;;2.47;90.53;100855.88;334400;28;17889;-76
2024/01/30 00:29:07;;;;;;;8.77;5.15;;;;;;;2.49;90.19;100856.78;337197;28;4539;-76
2024/01/30 00:29:20;;;;;;;8.63;5.05;;;;;;;2.49;90.18;100854.22;334456;28;17805;-76
2024/01/30 00:29:33;;;;;;;8.80;4.63;;;;;;;2.47;89.83;100853.31;336997;28;5545;-75
2024/01/30 00:29:45;;;;;;;7.43;4.47;;;;;;;2.45;89.94;100858.41;335221;28;19214;-75
2024/01/30 00:29:57;;;;;;;7.95;4.70;;;;;;;2.38;90.03;100852.31;336860;28;5310;-75
2024/01/30 00:30:10;;;;;;;8.52;4.97;;;;;;;2.36;90.19;100853.09;329640;28;5877;-75
2024/01/30 00:30:22;;;;;;;9.40;5.03;;;;;;;2.34;90.27;100858.22;337233;28;4584;-75
2024/01/30 00:30:34;;;;;;;9.30;4.90;;;;;;;2.35;90.25;100862.47;333452;28;12856;-75
2024/01/30 00:30:46;;;;;;;8.40;4.60;;;;;;;2.33;90.64;100853.03;336115;28;4965;-75
2024/01/30 00:30:58;;;;;;;8.45;4.72;;;;;;;2.32;90.69;100862.44;337592;28;5501;-75
2024/01/30 00:31:13;;;;;;;7.80;4.60;;;;;;;2.30;90.78;100853.84;334952;28;18233;-75
2024/01/30 00:31:25;;;;;;;7.22;4.45;;;;;;;2.31;91.00;100855.56;330158;28;18018;-75
2024/01/30 00:31:38;;;;;;;9.85;4.97;;;;;;;2.29;91.22;100857.22;336910;28;4681;-75
2024/01/30 00:31:53;;;;;;;10.63;4.90;;;;;;;2.31;91.15;100849.56;334196;28;18066;-75
2024/01/30 00:32:05;;;;;;;8.45;4.55;;;;;;;2.31;91.27;100850.44;334584;28;17992;-75
2024/01/30 00:32:19;;;;;;;8.20;4.70;;;;;;;2.31;90.95;100859.84;337680;28;5464;-75
2024/01/30 00:32:31;;;;;;;10.45;4.93;;;;;;;2.32;91.43;100852.19;334769;28;17819;-75
2024/01/30 00:32:43;;;;;;;11.18;4.82;;;;;;;2.35;91.09;100851.38;336748;28;5342;-75
2024/01/30 00:32:55;;;;;;;9.68;4.20;;;;;;;2.35;91.43;100851.38;333816;28;10973;-75
2024/01/30 00:33:08;;;;;;;10.05;4.50;;;;;;;2.34;91.05;100854.78;333235;28;4659;-75
2024/01/30 00:33:20;;;;;;;8.23;4.40;;;;;;;2.35;91.39;100856.50;334825;28;15252;-75
2024/01/30 00:33:32;;;;;;;6.75;4.57;;;;;;;2.32;91.41;100851.31;337480;28;5333;-75
2024/01/30 00:33:44;;;;;;;6.97;4.38;;;;;;;2.32;91.38;100852.19;336284;28;4574;-75
2024/01/30 00:33:56;;;;;;;8.85;4.85;;;;;;;2.32;91.33;100852.19;334634;28;18597;-75
2024/01/30 00:34:09;;;;;;;9.32;4.78;;;;;;;2.30;91.31;100848.72;337474;28;5285;-75
2024/01/30 00:34:21;;;;;;;8.15;4.63;;;;;;;2.30;91.20;100847.84;330502;28;8250;-75
2024/01/30 00:34:33;;;;;;;9.07;4.45;;;;;;;2.30;91.14;100858.13;336865;28;5205;-75
2024/01/30 00:34:45;;;;;;;10.63;4.47;;;;;;;2.31;91.45;100850.44;333947;28;16604;-75
2024/01/30 00:34:57;;;;;;;10.45;4.53;;;;;;;2.32;91.22;100854.75;337743;28;5315;-75
2024/01/30 00:35:10;;;;;;;11.45;4.72;;;;;;;2.33;91.17;100851.31;335982;28;5499;-75
2024/01/30 00:35:23;;;;;;;10.05;4.45;;;;;;;2.35;91.19;100849.66;337739;28;4623;-75
2024/01/30 00:35:35;;;;;;;8.80;4.45;;;;;;;2.34;90.89;100847.94;334412;28;12790;-75
2024/01/30 00:35:47;;;;;;;7.28;4.28;;;;;;;2.34;91.10;100855.63;332451;28;4646;-75
2024/01/30 00:35:59;;;;;;;8.63;4.47;;;;;;;2.36;91.32;100850.53;338294;28;4549;-75
2024/01/30 00:36:11;;;;;;;9.38;4.55;;;;;;;2.36;90.91;100853.97;335254;28;17827;-75
2024/01/30 00:36:23;;;;;;;9.85;4.70;;;;;;;2.39;90.98;100859.19;336180;29;4672;-75
2024/01/30 00:36:35;;;;;;;8.20;4.57;;;;;;;2.41;90.84;100854.06;333814;29;12542;-75
2024/01/30 00:36:47;;;;;;;8.23;4.60;;;;;;;2.42;90.62;100855.78;334613;29;5366;-75
2024/01/30 00:36:59;;;;;;;8.20;4.35;;;;;;;2.40;90.09;100852.34;333192;29;5120;-76
2024/01/30 00:37:11;;;;;;;8.23;4.15;;;;;;;2.38;90.20;100854.00;331262;29;14348;-76
2024/01/30 00:37:23;;;;;;;7.93;4.20;;;;;;;2.36;90.23;100848.84;330431;29;4610;-76
2024/01/30 00:37:35;;;;;;;8.80;4.50;;;;;;;2.34;90.42;100855.63;334878;29;4715;-76
2024/01/30 00:37:47;;;;;;;9.70;4.50;;;;;;;2.31;90.36;100853.00;331699;29;17860;-75
2024/01/30 00:37:59;;;;;;;8.15;4.30;;;;;;;2.32;90.07;100847.03;333688;29;4542;-75
2024/01/30 00:38:11;;;;;;;8.77;4.60;;;;;;;2.31;90.40;100850.44;330998;29;18141;-75
2024/01/30 00:38:23;;;;;;;10.05;4.63;;;;;;;2.33;90.46;100851.31;333675;29;5028;-75
2024/01/30 00:38:36;;;;;;;11.60;4.53;;;;;;;2.35;90.65;100847.09;333364;29;5349;-75
2024/01/30 00:38:48;;;;;;;8.07;4.20;;;;;;;2.35;90.56;100857.34;332558;28;18029;-75
2024/01/30 00:39:00;;;;;;;6.90;3.88;;;;;;;2.38;90.40;100856.56;336647;28;4714;-75
2024/01/30 00:39:12;;;;;;;6.78;3.72;;;;;;;2.39;90.14;100854.03;335970;28;18113;-75
2024/01/30 00:39:24;;;;;;;7.55;4.20;;;;;;;2.39;90.31;100856.63;338723;28;5382;-75
2024/01/30 00:39:36;;;;;;;8.13;4.32;;;;;;;2.40;90.15;100854.91;335181;28;18996;-75
2024/01/30 00:39:48;;;;;;;8.82;4.28;;;;;;;2.39;90.27;100854.03;338264;28;6134;-75
2024/01/30 00:40:00;;;;;;;8.73;4.57;;;;;;;2.38;90.18;100857.44;338487;28;4577;-75
2024/01/30 00:40:15;;;;;;;8.23;4.65;;;;;;;2.37;90.49;100855.72;333478;28;19175;-75
2024/01/30 00:40:27;;;;;;;8.48;4.53;;;;;;;2.34;90.51;100858.22;335889;28;17965;-75
2024/01/30 00:40:39;;;;;;;9.48;4.68;;;;;;;2.33;90.21;100853.88;337107;28;4697;-75
2024/01/30 00:40:51;;;;;;;8.38;4.57;;;;;;;2.33;90.24;100853.88;336873;28;5325;-75
2024/01/30 00:41:03;;;;;;;8.35;4.28;;;;;;;2.34;90.51;100850.50;334228;28;18342;-75
2024/01/30 00:41:17;;;;;;;9.23;4.10;;;;;;;2.36;90.28;100853.97;337195;28;4817;-75
2024/01/30 00:41:29;;;;;;;10.18;4.18;;;;;;;2.38;90.39;100857.44;334612;28;18230;-75
2024/01/30 00:41:41;;;;;;;8.63;4.18;;;;;;;2.39;90.70;100859.19;331239;28;5394;-75
2024/01/30 00:41:53;;;;;;;8.90;4.00;;;;;;;2.40;90.39;100854.91;333600;28;18433;-75
2024/01/30 00:42:05;;;;;;;8.13;4.10;;;;;;;2.40;90.18;100855.75;337571;28;5450;-75
2024/01/30 00:42:17;;;;;;;7.75;4.45;;;;;;;2.42;90.34;100849.81;334235;28;18063;-75
2024/01/30 00:42:29;;;;;;;9.05;5.30;;;;;;;2.43;90.41;100860.06;337289;28;5011;-75
2024/01/30 00:42:42;;;;;;;8.75;5.35;;;;;;;2.44;90.11;100858.41;336554;28;4814;-75
2024/01/30 00:42:54;;;;;;;8.27;4.95;;;;;;;2.44;90.17;100858.41;334621;28;17999;-75
2024/01/30 00:43:06;;;;;;;8.00;4.55;;;;;;;2.45;90.23;100860.13;337447;28;4739;-75
2024/01/30 00:43:19;;;;;;;9.40;4.70;;;;;;;2.43;90.20;100854.09;333730;28;18180;-75
2024/01/30 00:43:31;;;;;;;9.13;4.93;;;;;;;2.42;90.32;100854.94;335312;28;5245;-75
2024/01/30 00:43:43;;;;;;;8.70;5.20;;;;;;;2.42;89.99;100852.38;336493;28;5770;-75
2024/01/30 00:43:55;;;;;;;8.68;5.20;;;;;;;2.40;90.12;100862.59;335702;28;4595;-75
2024/01/30 00:44:07;;;;;;;8.88;5.22;;;;;;;2.37;90.05;100863.41;333549;28;19321;-75
2024/01/30 00:44:20;;;;;;;9.77;5.15;;;;;;;2.38;90.56;100857.44;336057;28;4507;-75
2024/01/30 00:44:37;;;;;;;9.68;5.03;;;;;;;2.39;90.74;100859.19;336069;28;4648;-75
2024/01/30 00:44:49;;;;;;;9.32;5.05;;;;;;;2.43;90.32;100851.53;333059;28;18003;-75
2024/01/30 00:45:01;;;;;;;9.43;5.22;;;;;;;2.41;90.63;100856.63;337132;28;4542;-75
2024/01/30 00:45:15;;;;;;;8.50;5.35;;;;;;;2.44;90.39;100855.84;334686;28;18072;-75
2024/01/30 00:45:27;;;;;;;8.27;5.38;;;;;;;2.44;90.24;100855.84;337506;28;4737;-75
2024/01/30 00:45:39;;;;;;;7.47;4.72;;;;;;;2.46;90.58;100861.88;334094;28;12901;-75
2024/01/30 00:45:54;;;;;;;7.70;4.47;;;;;;;2.49;90.51;100854.22;333128;28;5596;-75
2024/01/30 00:46:06;;;;;;;8.27;4.40;;;;;;;2.50;90.27;100855.97;333469;28;17692;-75
2024/01/30 00:46:18;;;;;;;7.60;4.45;;;;;;;2.51;90.23;100857.66;331484;28;18113;-75
2024/01/30 00:46:30;;;;;;;8.07;4.53;;;;;;;2.52;90.25;100855.13;335016;28;4875;-75
2024/01/30 00:46:42;;;;;;;6.88;4.38;;;;;;;2.53;89.91;100861.13;334028;29;5457;-75
2024/01/30 00:46:54;;;;;;;8.10;4.68;;;;;;;2.52;90.01;100849.16;331848;28;18197;-75
2024/01/30 00:47:06;;;;;;;9.57;5.22;;;;;;;2.49;89.85;100860.19;335880;28;4566;-75
2024/01/30 00:47:18;;;;;;;11.15;5.18;;;;;;;2.48;90.12;100860.19;335674;29;4580;-75
2024/01/30 00:47:32;;;;;;;9.73;5.07;;;;;;;2.49;89.83;100854.22;328874;28;17675;-75
2024/01/30 00:47:44;;;;;;;9.30;4.85;;;;;;;2.50;89.99;100855.97;332745;28;4910;-75
2024/01/30 00:47:57;;;;;;;9.05;4.88;;;;;;;2.47;90.34;100858.44;336194;28;4694;-75
2024/01/30 00:48:09;;;;;;;8.65;4.88;;;;;;;2.45;90.33;100854.97;334724;28;13215;-75
2024/01/30 00:48:21;;;;;;;7.50;4.70;;;;;;;2.46;90.03;100859.28;337094;28;5221;-75
2024/01/30 00:48:33;;;;;;;7.35;4.50;;;;;;;2.44;89.83;100855.84;336900;28;5555;-75
2024/01/30 00:48:45;;;;;;;8.07;4.43;;;;;;;2.44;90.38;100860.97;329088;28;18043;-75
2024/01/30 00:48:57;;;;;;;7.43;4.50;;;;;;;2.44;90.02;100860.97;338586;28;5366;-75
2024/01/30 00:49:10;;;;;;;8.32;4.63;;;;;;;2.46;89.86;100859.28;335759;28;9991;-75
2024/01/30 00:49:22;;;;;;;8.70;4.30;;;;;;;2.47;90.07;100858.44;338147;28;4507;-75
2024/01/30 00:49:34;;;;;;;9.43;4.55;;;;;;;2.47;89.87;100855.88;335412;28;18596;-75
2024/01/30 00:49:47;;;;;;;8.55;4.38;;;;;;;2.48;90.03;100862.75;336803;28;5092;-75
2024/01/30 00:49:59;;;;;;;8.90;4.30;;;;;;;2.47;90.01;100861.00;334568;28;13085;-75
2024/01/30 00:50:11;;;;;;;9.07;4.45;;;;;;;2.49;90.15;100854.22;337752;28;5347;-75
2024/01/30 00:50:23;;;;;;;7.80;4.32;;;;;;;2.49;90.07;100857.63;333086;28;4586;-75
2024/01/30 00:50:35;;;;;;;6.35;4.07;;;;;;;2.49;89.93;100855.06;334547;28;16132;-75
2024/01/30 00:50:47;;;;;;;8.70;4.40;;;;;;;2.51;90.25;100860.25;336400;28;4535;-75
2024/01/30 00:50:59;;;;;;;9.50;4.85;;;;;;;2.52;90.27;100859.41;337660;28;4540;-75
2024/01/30 00:51:11;;;;;;;9.07;4.75;;;;;;;2.52;89.86;100854.28;334555;28;18271;-75
2024/01/30 00:51:23;;;;;;;8.40;4.65;;;;;;;2.50;90.02;100856.81;337285;28;4583;-75
2024/01/30 00:51:35;;;;;;;9.73;4.70;;;;;;;2.48;90.00;100862.75;334852;28;16332;-76
2024/01/30 00:51:47;;;;;;;9.07;4.78;;;;;;;2.48;90.02;100855.91;332519;28;4921;-76
2024/01/30 00:52:00;;;;;;;7.85;4.80;;;;;;;2.48;89.94;100857.63;337579;28;5593;-76
2024/01/30 00:52:12;;;;;;;8.35;4.90;;;;;;;2.48;89.92;100853.34;333556;28;17442;-76
2024/01/30 00:52:24;;;;;;;7.38;4.55;;;;;;;2.48;89.96;100852.50;337563;28;4692;-76
2024/01/30 00:52:36;;;;;;;6.53;4.15;;;;;;;2.49;90.06;100851.63;334126;28;17954;-76
2024/01/30 00:52:48;;;;;;;6.43;4.32;;;;;;;2.50;90.02;100853.38;338045;28;4867;-76
2024/01/30 00:53:00;;;;;;;7.20;4.18;;;;;;;2.52;89.91;100854.28;332779;28;4775;-76
2024/01/30 00:53:12;;;;;;;8.00;3.95;;;;;;;2.54;89.84;100852.63;335777;28;18416;-76
2024/01/30 00:53:24;;;;;;;8.35;3.70;;;;;;;2.55;89.97;100856.88;330801;28;4622;-76
2024/01/30 00:53:36;;;;;;;7.53;3.88;;;;;;;2.56;89.67;100858.63;338228;28;4559;-76
2024/01/30 00:53:48;;;;;;;7.68;4.07;;;;;;;2.57;89.73;100855.22;338782;28;7139;-76
2024/01/30 00:54:00;;;;;;;9.40;4.78;;;;;;;2.56;89.88;100858.63;336466;28;5550;-76
2024/01/30 00:54:12;;;;;;;9.07;4.90;;;;;;;2.56;89.55;100854.38;338522;28;4516;-76
2024/01/30 00:54:24;;;;;;;8.68;4.97;;;;;;;2.57;89.43;100858.66;338602;28;4886;-76
2024/01/30 00:54:37;;;;;;;8.38;5.15;;;;;;;2.55;89.14;100856.88;331238;28;5529;-76
2024/01/30 00:54:49;;;;;;;8.35;5.35;;;;;;;2.53;88.98;100858.56;337150;28;5025;-76
2024/01/30 00:55:01;;;;;;;7.65;5.05;;;;;;;2.50;88.95;100861.94;334628;28;12571;-76
2024/01/30 00:55:14;;;;;;;8.48;5.20;;;;;;;2.50;89.37;100863.66;337672;28;4800;-76
2024/01/30 00:55:26;;;;;;;8.00;5.05;;;;;;;2.51;89.31;100857.66;334593;28;12623;-76
2024/01/30 00:55:38;;;;;;;7.60;4.75;;;;;;;2.51;89.41;100853.41;337238;28;5255;-76
2024/01/30 00:55:50;;;;;;;6.78;4.30;;;;;;;2.51;89.37;100858.53;337905;28;4536;-76
2024/01/30 00:56:03;;;;;;;6.75;4.30;;;;;;;2.53;89.11;100856.84;334789;28;17989;-76
2024/01/30 00:56:18;;;;;;;6.75;4.47;;;;;;;2.53;89.03;100858.56;337455;28;5339;-76
2024/01/30 00:56:30;;;;;;;7.47;4.57;;;;;;;2.54;88.82;100857.75;333684;28;17919;-76
2024/01/30 00:56:42;;;;;;;7.93;4.70;;;;;;;2.55;88.79;100859.47;334009;28;17896;-76
2024/01/30 00:56:54;;;;;;;8.30;4.72;;;;;;;2.54;89.04;100853.47;337250;28;4675;-76
2024/01/30 00:57:07;;;;;;;7.95;4.65;;;;;;;2.54;89.12;100862.88;334273;28;19093;-76
2024/01/30 00:57:19;;;;;;;11.73;5.05;;;;;;;2.52;89.21;100859.41;337526;28;5608;-76
2024/01/30 00:57:31;;;;;;;12.05;5.20;;;;;;;2.50;89.22;100856.81;336498;28;4742;-76
2024/01/30 00:57:43;;;;;;;13.05;5.22;;;;;;;2.48;89.16;100848.22;335552;28;18316;-76
2024/01/30 00:57:57;;;;;;;9.77;4.97;;;;;;;2.49;89.35;100854.22;333956;28;14216;-76
2024/01/30 00:58:09;;;;;;;10.68;5.13;;;;;;;2.48;89.35;100857.63;336065;28;4640;-76
2024/01/30 00:58:21;;;;;;;9.20;4.88;;;;;;;2.49;89.37;100854.22;335794;28;4670;-76
2024/01/30 00:58:33;;;;;;;9.25;4.68;;;;;;;2.50;89.50;100858.53;333374;28;18175;-76
2024/01/30 00:58:45;;;;;;;7.60;4.25;;;;;;;2.50;89.21;100855.97;336698;28;4585;-76
2024/01/30 00:58:57;;;;;;;6.88;4.60;;;;;;;2.51;88.92;100858.53;335131;28;18040;-76
2024/01/30 00:59:09;;;;;;;8.00;4.90;;;;;;;2.51;89.27;100857.66;334709;28;17952;-76